sensor_id;sensor_type;location;lat;lon;timestamp;pressure;altitude;pressure_sealevel;temperature
74539;BMP180;66042;51.090;-115.340;2023-07-20T00:01:52;87357.40;;;34.12
74539;BMP180;66042;51.090;-115.340;2023-07-20T00:04:19;87358.20;;;33.60
74539;BMP180;66042;51.090;-115.340;2023-07-20T00:06:46;87356.40;;;33.86
74539;BMP180;66042;51.090;-115.340;2023-07-20T00:09:13;87347.60;;;34.18
74539;BMP180;66042;51.090;-115.340;2023-07-20T00:11:40;87356.40;;;36.10
74539;BMP180;66042;51.090;-115.340;2023-07-20T00:14:07;87355.00;;;35.58
74539;BMP180;66042;51.090;-115.340;2023-07-20T00:16:33;87345.20;;;36.30
74539;BMP180;66042;51.090;-115.340;2023-07-20T00:19:00;87339.20;;;36.50
74539;BMP180;66042;51.090;-115.340;2023-07-20T00:21:27;87348.20;;;36.96
74539;BMP180;66042;51.090;-115.340;2023-07-20T00:23:54;87357.20;;;36.74
74539;BMP180;66042;51.090;-115.340;2023-07-20T00:26:21;87355.40;;;35.84
74539;BMP180;66042;51.090;-115.340;2023-07-20T00:28:50;87340.40;;;35.72
74539;BMP180;66042;51.090;-115.340;2023-07-20T00:31:20;87357.00;;;35.96
74539;BMP180;66042;51.090;-115.340;2023-07-20T00:33:47;87355.40;;;35.30
74539;BMP180;66042;51.090;-115.340;2023-07-20T00:36:14;87351.20;;;34.80
74539;BMP180;66042;51.090;-115.340;2023-07-20T00:38:42;87334.80;;;35.56
74539;BMP180;66042;51.090;-115.340;2023-07-20T00:41:09;87342.80;;;37.00
74539;BMP180;66042;51.090;-115.340;2023-07-20T00:43:36;87349.80;;;36.42
74539;BMP180;66042;51.090;-115.340;2023-07-20T00:46:03;87348.80;;;35.44
74539;BMP180;66042;51.090;-115.340;2023-07-20T00:48:31;87345.60;;;34.88
74539;BMP180;66042;51.090;-115.340;2023-07-20T00:51:00;87346.20;;;34.70
74539;BMP180;66042;51.090;-115.340;2023-07-20T00:53:28;87340.00;;;34.70
74539;BMP180;66042;51.090;-115.340;2023-07-20T00:55:55;87343.60;;;35.30
74539;BMP180;66042;51.090;-115.340;2023-07-20T00:58:23;87344.20;;;34.88
74539;BMP180;66042;51.090;-115.340;2023-07-20T01:00:51;87339.80;;;34.26
74539;BMP180;66042;51.090;-115.340;2023-07-20T01:03:18;87342.80;;;33.80
74539;BMP180;66042;51.090;-115.340;2023-07-20T01:14:31;87338.80;;;32.32
74539;BMP180;66042;51.090;-115.340;2023-07-20T01:16:59;87337.20;;;31.88
74539;BMP180;66042;51.090;-115.340;2023-07-20T01:19:25;87333.40;;;31.50
74539;BMP180;66042;51.090;-115.340;2023-07-20T01:28:37;87336.20;;;31.10
74539;BMP180;66042;51.090;-115.340;2023-07-20T01:31:21;87337.60;;;31.00
74539;BMP180;66042;51.090;-115.340;2023-07-20T01:33:57;87339.20;;;31.00
74539;BMP180;66042;51.090;-115.340;2023-07-20T01:36:26;87339.40;;;31.00
74539;BMP180;66042;51.090;-115.340;2023-07-20T01:38:54;87339.00;;;31.28
74539;BMP180;66042;51.090;-115.340;2023-07-20T01:41:23;87342.40;;;32.14
74539;BMP180;66042;51.090;-115.340;2023-07-20T01:43:50;87348.00;;;32.70
74539;BMP180;66042;51.090;-115.340;2023-07-20T01:46:18;87348.80;;;32.78
74539;BMP180;66042;51.090;-115.340;2023-07-20T01:48:45;87350.00;;;33.20
74539;BMP180;66042;51.090;-115.340;2023-07-20T01:51:12;87347.60;;;33.28
74539;BMP180;66042;51.090;-115.340;2023-07-20T01:53:38;87353.00;;;32.80
74539;BMP180;66042;51.090;-115.340;2023-07-20T01:56:05;87354.40;;;32.36
74539;BMP180;66042;51.090;-115.340;2023-07-20T01:58:32;87355.40;;;31.82
74539;BMP180;66042;51.090;-115.340;2023-07-20T02:00:58;87353.60;;;31.38
74539;BMP180;66042;51.090;-115.340;2023-07-20T02:03:25;87357.20;;;30.94
74539;BMP180;66042;51.090;-115.340;2023-07-20T02:05:53;87351.00;;;30.44
74539;BMP180;66042;51.090;-115.340;2023-07-20T02:08:20;87353.20;;;29.96
74539;BMP180;66042;51.090;-115.340;2023-07-20T02:10:48;87357.20;;;29.60
74539;BMP180;66042;51.090;-115.340;2023-07-20T02:13:15;87358.80;;;29.30
74539;BMP180;66042;51.090;-115.340;2023-07-20T02:15:43;87363.00;;;28.90
74539;BMP180;66042;51.090;-115.340;2023-07-20T02:18:10;87362.80;;;28.50
74539;BMP180;66042;51.090;-115.340;2023-07-20T02:20:37;87361.20;;;28.20
74539;BMP180;66042;51.090;-115.340;2023-07-20T02:23:04;87361.40;;;27.88
74539;BMP180;66042;51.090;-115.340;2023-07-20T02:25:31;87361.60;;;27.60
74539;BMP180;66042;51.090;-115.340;2023-07-20T02:27:58;87359.60;;;27.30
74539;BMP180;66042;51.090;-115.340;2023-07-20T02:30:25;87363.20;;;27.00
74539;BMP180;66042;51.090;-115.340;2023-07-20T02:32:53;87367.20;;;26.80
74539;BMP180;66042;51.090;-115.340;2023-07-20T02:35:20;87363.40;;;26.60
74539;BMP180;66042;51.090;-115.340;2023-07-20T02:37:46;87368.00;;;26.50
74539;BMP180;66042;51.090;-115.340;2023-07-20T02:40:14;87367.40;;;26.30
74539;BMP180;66042;51.090;-115.340;2023-07-20T02:42:40;87375.00;;;26.10
74539;BMP180;66042;51.090;-115.340;2023-07-20T02:45:08;87372.80;;;25.90
74539;BMP180;66042;51.090;-115.340;2023-07-20T02:47:35;87365.80;;;25.70
74539;BMP180;66042;51.090;-115.340;2023-07-20T02:50:02;87370.60;;;25.50
74539;BMP180;66042;51.090;-115.340;2023-07-20T02:52:29;87370.80;;;25.30
74539;BMP180;66042;51.090;-115.340;2023-07-20T02:54:56;87372.80;;;25.10
74539;BMP180;66042;51.090;-115.340;2023-07-20T02:57:23;87372.00;;;24.96
74539;BMP180;66042;51.090;-115.340;2023-07-20T02:59:49;87374.20;;;24.80
74539;BMP180;66042;51.090;-115.340;2023-07-20T03:02:16;87374.20;;;24.70
74539;BMP180;66042;51.090;-115.340;2023-07-20T03:04:43;87374.60;;;24.54
74539;BMP180;66042;51.090;-115.340;2023-07-20T03:07:10;87377.20;;;24.40
74539;BMP180;66042;51.090;-115.340;2023-07-20T03:09:37;87380.60;;;24.20
74539;BMP180;66042;51.090;-115.340;2023-07-20T03:12:04;87379.80;;;24.00
74539;BMP180;66042;51.090;-115.340;2023-07-20T03:14:31;87380.80;;;23.90
74539;BMP180;66042;51.090;-115.340;2023-07-20T03:16:58;87379.00;;;23.70
74539;BMP180;66042;51.090;-115.340;2023-07-20T03:19:25;87377.80;;;23.60
74539;BMP180;66042;51.090;-115.340;2023-07-20T03:21:51;87381.80;;;23.40
74539;BMP180;66042;51.090;-115.340;2023-07-20T03:24:18;87380.40;;;23.30
74539;BMP180;66042;51.090;-115.340;2023-07-20T03:26:45;87380.20;;;23.20
74539;BMP180;66042;51.090;-115.340;2023-07-20T03:29:13;87386.40;;;23.10
74539;BMP180;66042;51.090;-115.340;2023-07-20T03:31:40;87388.20;;;23.00
74539;BMP180;66042;51.090;-115.340;2023-07-20T03:34:07;87387.60;;;22.96
74539;BMP180;66042;51.090;-115.340;2023-07-20T03:36:35;87391.80;;;22.80
74539;BMP180;66042;51.090;-115.340;2023-07-20T03:39:02;87392.40;;;22.80
74539;BMP180;66042;51.090;-115.340;2023-07-20T03:41:29;87397.80;;;22.70
74539;BMP180;66042;51.090;-115.340;2023-07-20T03:43:56;87400.80;;;22.50
74539;BMP180;66042;51.090;-115.340;2023-07-20T03:46:24;87394.20;;;22.40
74539;BMP180;66042;51.090;-115.340;2023-07-20T03:48:51;87397.80;;;22.30
74539;BMP180;66042;51.090;-115.340;2023-07-20T03:51:17;87397.80;;;22.20
74539;BMP180;66042;51.090;-115.340;2023-07-20T03:53:45;87402.40;;;22.10
74539;BMP180;66042;51.090;-115.340;2023-07-20T03:56:11;87402.80;;;21.90
74539;BMP180;66042;51.090;-115.340;2023-07-20T03:58:39;87408.00;;;21.78
74539;BMP180;66042;51.090;-115.340;2023-07-20T04:01:05;87413.40;;;21.60
74539;BMP180;66042;51.090;-115.340;2023-07-20T04:03:33;87413.20;;;21.60
74539;BMP180;66042;51.090;-115.340;2023-07-20T04:06:00;87415.20;;;21.50
74539;BMP180;66042;51.090;-115.340;2023-07-20T04:08:27;87418.20;;;21.42
74539;BMP180;66042;51.090;-115.340;2023-07-20T04:10:55;87423.40;;;21.40
74539;BMP180;66042;51.090;-115.340;2023-07-20T04:13:22;87428.00;;;21.30
74539;BMP180;66042;51.090;-115.340;2023-07-20T04:15:49;87428.20;;;21.30
74539;BMP180;66042;51.090;-115.340;2023-07-20T04:18:16;87429.40;;;21.20
74539;BMP180;66042;51.090;-115.340;2023-07-20T04:20:43;87431.40;;;21.10
74539;BMP180;66042;51.090;-115.340;2023-07-20T04:23:10;87432.00;;;21.00
74539;BMP180;66042;51.090;-115.340;2023-07-20T04:25:40;87438.00;;;20.86
74539;BMP180;66042;51.090;-115.340;2023-07-20T04:28:08;87442.20;;;20.70
74539;BMP180;66042;51.090;-115.340;2023-07-20T04:30:39;87441.40;;;20.62
74539;BMP180;66042;51.090;-115.340;2023-07-20T04:33:07;87444.20;;;20.54
74539;BMP180;66042;51.090;-115.340;2023-07-20T04:35:54;87442.40;;;20.50
74539;BMP180;66042;51.090;-115.340;2023-07-20T04:38:21;87438.60;;;20.40
74539;BMP180;66042;51.090;-115.340;2023-07-20T04:40:49;87446.40;;;20.40
74539;BMP180;66042;51.090;-115.340;2023-07-20T04:43:18;87448.80;;;20.30
74539;BMP180;66042;51.090;-115.340;2023-07-20T04:45:45;87446.40;;;20.20
74539;BMP180;66042;51.090;-115.340;2023-07-20T04:48:15;87447.60;;;20.10
74539;BMP180;66042;51.090;-115.340;2023-07-20T04:50:44;87446.60;;;20.00
74539;BMP180;66042;51.090;-115.340;2023-07-20T04:53:14;87447.40;;;20.00
74539;BMP180;66042;51.090;-115.340;2023-07-20T04:55:48;87450.80;;;19.90
74539;BMP180;66042;51.090;-115.340;2023-07-20T04:58:20;87451.40;;;19.80
74539;BMP180;66042;51.090;-115.340;2023-07-20T05:00:51;87453.80;;;19.78
74539;BMP180;66042;51.090;-115.340;2023-07-20T05:03:19;87454.40;;;19.70
74539;BMP180;66042;51.090;-115.340;2023-07-20T05:05:48;87452.20;;;19.60
74539;BMP180;66042;51.090;-115.340;2023-07-20T05:08:15;87454.60;;;19.50
74539;BMP180;66042;51.090;-115.340;2023-07-20T05:10:42;87456.40;;;19.40
74539;BMP180;66042;51.090;-115.340;2023-07-20T05:13:09;87454.80;;;19.40
74539;BMP180;66042;51.090;-115.340;2023-07-20T05:15:36;87454.60;;;19.30
74539;BMP180;66042;51.090;-115.340;2023-07-20T05:18:04;87458.00;;;19.20
74539;BMP180;66042;51.090;-115.340;2023-07-20T05:20:31;87459.00;;;19.10
74539;BMP180;66042;51.090;-115.340;2023-07-20T05:23:00;87461.00;;;19.10
74539;BMP180;66042;51.090;-115.340;2023-07-20T05:25:28;87458.20;;;19.00
74539;BMP180;66042;51.090;-115.340;2023-07-20T05:27:55;87458.20;;;18.90
74539;BMP180;66042;51.090;-115.340;2023-07-20T05:30:22;87462.20;;;18.80
74539;BMP180;66042;51.090;-115.340;2023-07-20T05:32:49;87464.20;;;18.80
74539;BMP180;66042;51.090;-115.340;2023-07-20T05:35:18;87466.00;;;18.70
74539;BMP180;66042;51.090;-115.340;2023-07-20T05:37:46;87468.40;;;18.60
74539;BMP180;66042;51.090;-115.340;2023-07-20T05:40:14;87469.80;;;18.60
74539;BMP180;66042;51.090;-115.340;2023-07-20T05:42:46;87468.40;;;18.50
74539;BMP180;66042;51.090;-115.340;2023-07-20T05:45:15;87466.00;;;18.40
74539;BMP180;66042;51.090;-115.340;2023-07-20T05:47:46;87468.60;;;18.40
74539;BMP180;66042;51.090;-115.340;2023-07-20T05:50:13;87466.60;;;18.40
74539;BMP180;66042;51.090;-115.340;2023-07-20T05:52:40;87472.60;;;18.30
74539;BMP180;66042;51.090;-115.340;2023-07-20T05:55:08;87472.20;;;18.26
74539;BMP180;66042;51.090;-115.340;2023-07-20T05:57:35;87474.20;;;18.20
74539;BMP180;66042;51.090;-115.340;2023-07-20T06:00:03;87474.20;;;18.10
74539;BMP180;66042;51.090;-115.340;2023-07-20T06:02:30;87474.80;;;18.10
74539;BMP180;66042;51.090;-115.340;2023-07-20T06:04:59;87470.40;;;18.00
74539;BMP180;66042;51.090;-115.340;2023-07-20T06:07:26;87471.40;;;17.90
74539;BMP180;66042;51.090;-115.340;2023-07-20T06:09:53;87471.60;;;17.90
74539;BMP180;66042;51.090;-115.340;2023-07-20T06:12:20;87471.00;;;17.80
74539;BMP180;66042;51.090;-115.340;2023-07-20T06:14:47;87473.80;;;17.70
74539;BMP180;66042;51.090;-115.340;2023-07-20T06:17:14;87470.60;;;17.64
74539;BMP180;66042;51.090;-115.340;2023-07-20T06:19:41;87472.40;;;17.60
74539;BMP180;66042;51.090;-115.340;2023-07-20T06:22:09;87474.80;;;17.54
74539;BMP180;66042;51.090;-115.340;2023-07-20T06:24:36;87475.20;;;17.50
74539;BMP180;66042;51.090;-115.340;2023-07-20T06:27:03;87478.00;;;17.40
74539;BMP180;66042;51.090;-115.340;2023-07-20T06:29:32;87481.40;;;17.40
74539;BMP180;66042;51.090;-115.340;2023-07-20T06:31:59;87476.00;;;17.20
74539;BMP180;66042;51.090;-115.340;2023-07-20T06:34:26;87479.80;;;17.00
74539;BMP180;66042;51.090;-115.340;2023-07-20T06:36:53;87481.60;;;17.00
74539;BMP180;66042;51.090;-115.340;2023-07-20T06:39:20;87483.20;;;16.98
74539;BMP180;66042;51.090;-115.340;2023-07-20T06:41:48;87482.40;;;16.90
74539;BMP180;66042;51.090;-115.340;2023-07-20T06:44:15;87481.60;;;16.78
74539;BMP180;66042;51.090;-115.340;2023-07-20T06:46:42;87483.00;;;16.70
74539;BMP180;66042;51.090;-115.340;2023-07-20T06:49:09;87484.80;;;16.70
74539;BMP180;66042;51.090;-115.340;2023-07-20T06:51:36;87484.00;;;16.60
74539;BMP180;66042;51.090;-115.340;2023-07-20T06:54:03;87479.20;;;16.48
74539;BMP180;66042;51.090;-115.340;2023-07-20T06:56:31;87483.60;;;16.40
74539;BMP180;66042;51.090;-115.340;2023-07-20T06:58:58;87480.60;;;16.36
74539;BMP180;66042;51.090;-115.340;2023-07-20T07:01:25;87489.20;;;16.20
74539;BMP180;66042;51.090;-115.340;2023-07-20T07:03:52;87484.60;;;16.20
74539;BMP180;66042;51.090;-115.340;2023-07-20T07:06:19;87486.00;;;16.00
74539;BMP180;66042;51.090;-115.340;2023-07-20T07:08:47;87485.80;;;16.00
74539;BMP180;66042;51.090;-115.340;2023-07-20T07:11:14;87490.20;;;15.96
74539;BMP180;66042;51.090;-115.340;2023-07-20T07:13:41;87488.40;;;16.00
74539;BMP180;66042;51.090;-115.340;2023-07-20T07:16:08;87484.60;;;15.96
74539;BMP180;66042;51.090;-115.340;2023-07-20T07:18:35;87486.20;;;15.86
74539;BMP180;66042;51.090;-115.340;2023-07-20T07:21:02;87490.40;;;15.80
74539;BMP180;66042;51.090;-115.340;2023-07-20T07:23:29;87492.80;;;15.80
74539;BMP180;66042;51.090;-115.340;2023-07-20T07:25:56;87492.40;;;15.70
74539;BMP180;66042;51.090;-115.340;2023-07-20T07:28:23;87493.00;;;15.70
74539;BMP180;66042;51.090;-115.340;2023-07-20T07:30:51;87490.60;;;15.70
74539;BMP180;66042;51.090;-115.340;2023-07-20T07:33:18;87491.40;;;15.68
74539;BMP180;66042;51.090;-115.340;2023-07-20T07:35:45;87492.60;;;15.60
74539;BMP180;66042;51.090;-115.340;2023-07-20T07:38:12;87490.60;;;15.60
74539;BMP180;66042;51.090;-115.340;2023-07-20T07:40:38;87494.20;;;15.50
74539;BMP180;66042;51.090;-115.340;2023-07-20T07:43:06;87494.20;;;15.42
74539;BMP180;66042;51.090;-115.340;2023-07-20T07:45:35;87495.20;;;15.40
74539;BMP180;66042;51.090;-115.340;2023-07-20T07:48:05;87497.00;;;15.40
74539;BMP180;66042;51.090;-115.340;2023-07-20T07:50:33;87498.80;;;15.30
74539;BMP180;66042;51.090;-115.340;2023-07-20T07:53:00;87499.40;;;15.30
74539;BMP180;66042;51.090;-115.340;2023-07-20T07:55:27;87492.40;;;15.30
74539;BMP180;66042;51.090;-115.340;2023-07-20T07:57:54;87491.40;;;15.20
74539;BMP180;66042;51.090;-115.340;2023-07-20T08:00:22;87491.80;;;15.10
74539;BMP180;66042;51.090;-115.340;2023-07-20T08:02:51;87496.80;;;15.00
74539;BMP180;66042;51.090;-115.340;2023-07-20T08:05:18;87495.40;;;15.00
74539;BMP180;66042;51.090;-115.340;2023-07-20T08:07:44;87500.40;;;15.00
74539;BMP180;66042;51.090;-115.340;2023-07-20T08:10:12;87496.40;;;14.90
74539;BMP180;66042;51.090;-115.340;2023-07-20T08:12:39;87499.80;;;14.90
74539;BMP180;66042;51.090;-115.340;2023-07-20T08:15:06;87500.00;;;14.90
74539;BMP180;66042;51.090;-115.340;2023-07-20T08:17:33;87498.00;;;14.90
74539;BMP180;66042;51.090;-115.340;2023-07-20T08:20:01;87500.40;;;14.90
74539;BMP180;66042;51.090;-115.340;2023-07-20T08:22:29;87499.20;;;14.86
74539;BMP180;66042;51.090;-115.340;2023-07-20T08:24:56;87503.20;;;14.80
74539;BMP180;66042;51.090;-115.340;2023-07-20T08:27:23;87502.00;;;14.76
74539;BMP180;66042;51.090;-115.340;2023-07-20T08:29:50;87502.60;;;14.70
74539;BMP180;66042;51.090;-115.340;2023-07-20T08:32:17;87499.00;;;14.60
74539;BMP180;66042;51.090;-115.340;2023-07-20T08:34:45;87497.20;;;14.60
74539;BMP180;66042;51.090;-115.340;2023-07-20T08:37:12;87497.00;;;14.52
74539;BMP180;66042;51.090;-115.340;2023-07-20T08:39:39;87499.80;;;14.50
74539;BMP180;66042;51.090;-115.340;2023-07-20T08:42:07;87497.80;;;14.40
74539;BMP180;66042;51.090;-115.340;2023-07-20T08:44:35;87498.00;;;14.40
74539;BMP180;66042;51.090;-115.340;2023-07-20T08:47:02;87498.20;;;14.30
74539;BMP180;66042;51.090;-115.340;2023-07-20T08:49:34;87499.00;;;14.30
74539;BMP180;66042;51.090;-115.340;2023-07-20T08:52:03;87496.60;;;14.30
74539;BMP180;66042;51.090;-115.340;2023-07-20T08:54:31;87498.60;;;14.20
74539;BMP180;66042;51.090;-115.340;2023-07-20T08:57:06;87499.00;;;14.20
74539;BMP180;66042;51.090;-115.340;2023-07-20T08:59:37;87498.00;;;14.14
74539;BMP180;66042;51.090;-115.340;2023-07-20T09:02:08;87496.20;;;14.10
74539;BMP180;66042;51.090;-115.340;2023-07-20T09:04:37;87496.00;;;14.10
74539;BMP180;66042;51.090;-115.340;2023-07-20T09:07:04;87493.80;;;14.00
74539;BMP180;66042;51.090;-115.340;2023-07-20T09:09:32;87497.60;;;14.00
74539;BMP180;66042;51.090;-115.340;2023-07-20T09:11:59;87495.40;;;14.00
74539;BMP180;66042;51.090;-115.340;2023-07-20T09:14:25;87499.00;;;14.00
74539;BMP180;66042;51.090;-115.340;2023-07-20T09:16:56;87496.80;;;14.00
74539;BMP180;66042;51.090;-115.340;2023-07-20T09:19:23;87496.60;;;13.90
74539;BMP180;66042;51.090;-115.340;2023-07-20T09:21:52;87496.60;;;13.90
74539;BMP180;66042;51.090;-115.340;2023-07-20T09:24:20;87502.20;;;13.80
74539;BMP180;66042;51.090;-115.340;2023-07-20T09:26:48;87497.00;;;13.80
74539;BMP180;66042;51.090;-115.340;2023-07-20T09:29:20;87498.20;;;13.80
74539;BMP180;66042;51.090;-115.340;2023-07-20T09:32:03;87498.80;;;13.80
74539;BMP180;66042;51.090;-115.340;2023-07-20T09:34:31;87498.80;;;13.80
74539;BMP180;66042;51.090;-115.340;2023-07-20T09:37:01;87500.80;;;13.80
74539;BMP180;66042;51.090;-115.340;2023-07-20T09:39:29;87499.20;;;13.78
74539;BMP180;66042;51.090;-115.340;2023-07-20T09:42:01;87497.40;;;13.70
74539;BMP180;66042;51.090;-115.340;2023-07-20T09:44:29;87497.20;;;13.64
74539;BMP180;66042;51.090;-115.340;2023-07-20T09:46:56;87495.60;;;13.60
74539;BMP180;66042;51.090;-115.340;2023-07-20T09:49:23;87497.20;;;13.60
74539;BMP180;66042;51.090;-115.340;2023-07-20T09:51:50;87502.00;;;13.60
74539;BMP180;66042;51.090;-115.340;2023-07-20T09:54:19;87500.60;;;13.50
74539;BMP180;66042;51.090;-115.340;2023-07-20T09:56:51;87501.40;;;13.50
74539;BMP180;66042;51.090;-115.340;2023-07-20T09:59:19;87498.20;;;13.40
74539;BMP180;66042;51.090;-115.340;2023-07-20T10:01:47;87502.80;;;13.40
74539;BMP180;66042;51.090;-115.340;2023-07-20T10:04:19;87501.40;;;13.34
74539;BMP180;66042;51.090;-115.340;2023-07-20T10:06:52;87502.80;;;13.30
74539;BMP180;66042;51.090;-115.340;2023-07-20T10:09:24;87499.60;;;13.28
74539;BMP180;66042;51.090;-115.340;2023-07-20T10:11:53;87499.00;;;13.20
74539;BMP180;66042;51.090;-115.340;2023-07-20T10:14:21;87501.20;;;13.20
74539;BMP180;66042;51.090;-115.340;2023-07-20T10:16:51;87498.20;;;13.14
74539;BMP180;66042;51.090;-115.340;2023-07-20T10:19:41;87500.80;;;13.10
74539;BMP180;66042;51.090;-115.340;2023-07-20T10:22:32;87500.60;;;13.00
74539;BMP180;66042;51.090;-115.340;2023-07-20T10:25:02;87503.60;;;12.90
74539;BMP180;66042;51.090;-115.340;2023-07-20T10:27:31;87503.40;;;12.80
74539;BMP180;66042;51.090;-115.340;2023-07-20T10:29:59;87503.40;;;12.80
74539;BMP180;66042;51.090;-115.340;2023-07-20T10:32:29;87501.80;;;12.80
74539;BMP180;66042;51.090;-115.340;2023-07-20T10:34:57;87504.20;;;12.80
74539;BMP180;66042;51.090;-115.340;2023-07-20T10:37:52;87507.40;;;12.80
74539;BMP180;66042;51.090;-115.340;2023-07-20T10:40:34;87504.00;;;12.80
74539;BMP180;66042;51.090;-115.340;2023-07-20T10:43:07;87503.80;;;12.80
74539;BMP180;66042;51.090;-115.340;2023-07-20T10:45:51;87503.40;;;12.80
74539;BMP180;66042;51.090;-115.340;2023-07-20T10:48:24;87508.40;;;12.80
74539;BMP180;66042;51.090;-115.340;2023-07-20T10:51:19;87511.00;;;12.70
74539;BMP180;66042;51.090;-115.340;2023-07-20T10:53:49;87511.60;;;12.70
74539;BMP180;66042;51.090;-115.340;2023-07-20T10:56:36;87510.60;;;12.70
74539;BMP180;66042;51.090;-115.340;2023-07-20T11:02:06;87506.20;;;12.60
74539;BMP180;66042;51.090;-115.340;2023-07-20T11:04:44;87505.80;;;12.50
74539;BMP180;66042;51.090;-115.340;2023-07-20T11:07:37;87507.80;;;12.50
74539;BMP180;66042;51.090;-115.340;2023-07-20T11:10:17;87506.60;;;12.50
74539;BMP180;66042;51.090;-115.340;2023-07-20T11:13:23;87507.40;;;12.48
74539;BMP180;66042;51.090;-115.340;2023-07-20T11:18:28;87505.80;;;12.30
74539;BMP180;66042;51.090;-115.340;2023-07-20T11:20:55;87508.40;;;12.30
74539;BMP180;66042;51.090;-115.340;2023-07-20T11:23:23;87512.20;;;12.30
74539;BMP180;66042;51.090;-115.340;2023-07-20T11:25:50;87513.80;;;12.20
74539;BMP180;66042;51.090;-115.340;2023-07-20T11:28:17;87513.00;;;12.10
74539;BMP180;66042;51.090;-115.340;2023-07-20T11:30:44;87510.80;;;12.10
74539;BMP180;66042;51.090;-115.340;2023-07-20T11:33:11;87507.60;;;12.10
74539;BMP180;66042;51.090;-115.340;2023-07-20T11:35:49;87509.40;;;12.20
74539;BMP180;66042;51.090;-115.340;2023-07-20T11:38:19;87509.00;;;12.16
74539;BMP180;66042;51.090;-115.340;2023-07-20T11:40:47;87505.20;;;12.10
74539;BMP180;66042;51.090;-115.340;2023-07-20T11:43:14;87506.40;;;12.00
74539;BMP180;66042;51.090;-115.340;2023-07-20T11:45:42;87510.60;;;11.96
74539;BMP180;66042;51.090;-115.340;2023-07-20T11:48:15;87513.60;;;11.98
74539;BMP180;66042;51.090;-115.340;2023-07-20T11:50:42;87508.00;;;11.96
74539;BMP180;66042;51.090;-115.340;2023-07-20T11:53:10;87514.80;;;11.90
74539;BMP180;66042;51.090;-115.340;2023-07-20T11:55:39;87510.00;;;11.90
74539;BMP180;66042;51.090;-115.340;2023-07-20T11:58:08;87516.20;;;11.80
74539;BMP180;66042;51.090;-115.340;2023-07-20T12:00:37;87519.60;;;11.78
74539;BMP180;66042;51.090;-115.340;2023-07-20T12:03:06;87517.80;;;11.70
74539;BMP180;66042;51.090;-115.340;2023-07-20T12:05:34;87520.00;;;11.80
74539;BMP180;66042;51.090;-115.340;2023-07-20T12:08:01;87517.00;;;11.80
74539;BMP180;66042;51.090;-115.340;2023-07-20T12:10:29;87516.80;;;11.80
74539;BMP180;66042;51.090;-115.340;2023-07-20T12:13:03;87517.40;;;11.80
74539;BMP180;66042;51.090;-115.340;2023-07-20T12:15:33;87521.60;;;11.84
74539;BMP180;66042;51.090;-115.340;2023-07-20T12:18:02;87524.80;;;11.80
74539;BMP180;66042;51.090;-115.340;2023-07-20T12:20:37;87526.60;;;11.78
74539;BMP180;66042;51.090;-115.340;2023-07-20T12:23:09;87531.00;;;11.70
74539;BMP180;66042;51.090;-115.340;2023-07-20T12:25:45;87530.80;;;11.70
74539;BMP180;66042;51.090;-115.340;2023-07-20T12:28:18;87532.40;;;11.70
74539;BMP180;66042;51.090;-115.340;2023-07-20T12:30:46;87534.80;;;11.70
74539;BMP180;66042;51.090;-115.340;2023-07-20T12:33:23;87535.20;;;11.54
74539;BMP180;66042;51.090;-115.340;2023-07-20T12:35:50;87532.40;;;11.50
74539;BMP180;66042;51.090;-115.340;2023-07-20T12:38:19;87535.20;;;11.50
74539;BMP180;66042;51.090;-115.340;2023-07-20T12:40:47;87536.80;;;11.60
74539;BMP180;66042;51.090;-115.340;2023-07-20T12:43:14;87539.60;;;11.60
74539;BMP180;66042;51.090;-115.340;2023-07-20T12:45:42;87538.60;;;11.60
74539;BMP180;66042;51.090;-115.340;2023-07-20T12:48:09;87538.60;;;11.60
74539;BMP180;66042;51.090;-115.340;2023-07-20T12:50:36;87545.80;;;11.60
74539;BMP180;66042;51.090;-115.340;2023-07-20T12:53:03;87548.60;;;11.60
74539;BMP180;66042;51.090;-115.340;2023-07-20T12:55:31;87546.80;;;11.60
74539;BMP180;66042;51.090;-115.340;2023-07-20T12:57:58;87545.40;;;11.60
74539;BMP180;66042;51.090;-115.340;2023-07-20T13:00:25;87544.00;;;11.60
74539;BMP180;66042;51.090;-115.340;2023-07-20T13:02:52;87543.80;;;11.62
74539;BMP180;66042;51.090;-115.340;2023-07-20T13:05:19;87549.20;;;11.62
74539;BMP180;66042;51.090;-115.340;2023-07-20T13:07:46;87546.20;;;11.60
74539;BMP180;66042;51.090;-115.340;2023-07-20T13:10:13;87545.60;;;11.60
74539;BMP180;66042;51.090;-115.340;2023-07-20T13:12:41;87550.40;;;11.52
74539;BMP180;66042;51.090;-115.340;2023-07-20T13:15:09;87547.60;;;11.54
74539;BMP180;66042;51.090;-115.340;2023-07-20T13:17:38;87554.00;;;11.52
74539;BMP180;66042;51.090;-115.340;2023-07-20T13:20:08;87556.40;;;11.50
74539;BMP180;66042;51.090;-115.340;2023-07-20T13:22:39;87560.20;;;11.50
74539;BMP180;66042;51.090;-115.340;2023-07-20T13:25:07;87555.80;;;11.52
74539;BMP180;66042;51.090;-115.340;2023-07-20T13:27:35;87555.40;;;11.52
74539;BMP180;66042;51.090;-115.340;2023-07-20T13:30:03;87554.00;;;11.52
74539;BMP180;66042;51.090;-115.340;2023-07-20T13:32:34;87555.20;;;11.54
74539;BMP180;66042;51.090;-115.340;2023-07-20T13:35:01;87555.20;;;11.60
74539;BMP180;66042;51.090;-115.340;2023-07-20T13:37:28;87556.60;;;11.60
74539;BMP180;66042;51.090;-115.340;2023-07-20T13:39:55;87556.20;;;11.52
74539;BMP180;66042;51.090;-115.340;2023-07-20T13:42:22;87554.60;;;11.60
74539;BMP180;66042;51.090;-115.340;2023-07-20T13:44:49;87551.00;;;11.50
74539;BMP180;66042;51.090;-115.340;2023-07-20T13:47:16;87548.80;;;11.52
74539;BMP180;66042;51.090;-115.340;2023-07-20T13:49:44;87546.80;;;11.60
74539;BMP180;66042;51.090;-115.340;2023-07-20T13:52:11;87544.40;;;11.60
74539;BMP180;66042;51.090;-115.340;2023-07-20T13:54:38;87547.00;;;11.60
74539;BMP180;66042;51.090;-115.340;2023-07-20T13:57:05;87540.20;;;11.68
74539;BMP180;66042;51.090;-115.340;2023-07-20T13:59:32;87543.80;;;11.70
74539;BMP180;66042;51.090;-115.340;2023-07-20T14:01:59;87543.00;;;11.78